EDT,Max TemperatureF,Mean TemperatureF,Min TemperatureF,Max Dew PointF,MeanDew PointF,Min DewpointF,Max Humidity, Mean Humidity, Min Humidity, Max Sea Level PressureIn, Mean Sea Level PressureIn, Min Sea Level PressureIn, Max VisibilityMiles, Mean VisibilityMiles, Min VisibilityMiles, Max Wind SpeedMPH, Mean Wind SpeedMPH, Max Gust SpeedMPH,PrecipitationIn, CloudCover, Events, WindDirDegrees
2013-4-1,50,44,37,47,42,17,100,87,43,29.78,29.66,29.60,10,8,1,16,12,31,0.22,6,Rain,225
2013-4-2,42,34,30,21,13,7,47,39,27,29.99,29.89,29.81,10,10,10,17,9,30,0.00,2,,267
2013-4-3,46,38,30,14,12,10,47,36,23,30.14,30.01,29.96,10,10,10,15,10,28,0.00,0,,269
2013-4-4,46,40,34,33,22,11,77,52,24,30.31,30.22,30.13,10,10,10,14,9,30,0.00,0,,258
2013-4-5,48,44,41,45,39,29,96,85,58,30.12,29.83,29.67,10,9,4,14,8,25,0.08,4,Rain,225
2013-4-6,43,40,35,25,16,6,67,43,23,30.37,30.19,29.90,10,10,10,14,9,29,0.00,0,,306
2013-4-7,48,38,28,42,32,24,85,72,46,30.37,30.26,30.09,10,10,10,15,5,26,0.00,1,,190
2013-4-8,61,52,44,46,40,36,93,70,46,30.15,30.07,30.00,10,10,7,15,9,26,0.00,1,,183
2013-4-9,64,52,42,50,45,38,100,86,60,30.14,29.98,29.88,10,6,0,16,8,23,0.00,3,Fog-Rain-Thunderstorm,178
2013-4-10,52,48,44,44,42,41,93,85,71,30.03,29.95,29.90,10,9,1,15,6,16,0.33,4,Rain,105
2013-4-11,50,46,44,45,41,36,100,85,61,30.16,29.97,29.81,10,8,1,15,4,22,0.06,7,Rain,55
2013-4-12,44,40,37,44,38,26,100,86,51,30.17,29.91,29.66,10,5,2,20,12,34,0.79,8,Rain,74
2013-4-13,46,42,39,43,38,35,100,87,63,29.97,29.79,29.66,10,7,2,18,7,28,0.08,7,Rain,3
2013-4-14,54,47,41,42,36,29,93,68,43,30.20,30.03,29.95,10,10,10,10,5,17,0.00,5,Rain,251
2013-4-15,51,44,39,40,36,30,92,72,54,30.45,30.36,30.21,10,10,10,8,5,,0.00,0,,58
2013-4-16,55,48,41,48,42,39,96,84,67,30.45,30.38,30.15,10,10,10,14,6,28,0.00,3,,180
2013-4-17,60,50,41,50,44,32,96,79,38,30.34,30.18,30.11,10,9,4,14,9,26,0.02,5,Rain,246
2013-4-18,54,46,39,45,39,34,89,72,52,30.45,30.35,30.21,10,10,10,15,7,26,0.00,2,,130
2013-4-19,61,54,48,59,54,45,100,95,87,30.20,29.99,29.81,10,5,0,17,9,31,0.02,8,Fog-Rain,199
2013-4-20,61,52,43,59,50,36,100,92,66,30.19,29.85,29.72,10,6,2,20,13,37,0.45,6,Rain,230
2013-4-21,46,42,39,32,25,22,60,50,43,30.68,30.50,30.22,10,10,9,12,8,21,0.00,0,,21
2013-4-22,50,44,39,38,32,27,71,63,46,30.74,30.66,30.58,10,10,10,18,11,24,0.00,4,,71
2013-4-23,45,44,42,43,42,35,96,91,74,30.55,30.30,29.98,10,4,2,17,13,26,1.27,8,Rain,48
2013-4-24,55,50,44,49,45,43,100,92,74,29.99,29.89,29.79,10,6,1,18,11,34,0.22,6,Rain,284
2013-4-25,59,51,44,52,46,36,97,84,44,30.27,30.07,29.94,10,9,5,13,9,23,0.05,5,,239
2013-4-26,54,48,41,42,40,36,96,75,52,30.44,30.38,30.26,10,10,9,12,5,18,0.00,0,,52
2013-4-27,57,46,36,43,35,29,97,66,37,30.43,30.40,30.35,10,10,8,7,2,,0.00,0,,187
2013-4-28,60,49,39,45,42,34,89,74,47,30.38,30.33,30.30,10,10,10,8,2,,0.00,0,,201
2013-4-29,62,52,44,46,40,33,93,69,38,30.32,30.30,30.27,10,10,7,8,2,,0.00,0,,187
2013-4-30,59,49,41,43,33,24,89,57,28,30.38,30.34,30.28,10,10,10,9,2,,0.00,0,,83